Time;durP1;ratioP1;P1;durP2;ratioP2;P2;SDS_P1;SDS_P2;PMS_P1;PMS_P2;Temp;Humidity;BMP_temperature;BMP_pressure;BME280_temperature;BME280_humidity;BME280_pressure;Samples;Min_cycle;Max_cycle;Signal;HPM_P1;HPM_P2
2023/12/24 00:00:14;;;;;;;1.63;1.53;;;;;;;6.90;nan;60502.44;4993228;28;20187;-65
2023/12/24 00:02:39;;;;;;;1.37;1.33;;;;;;;6.99;nan;60494.19;4993451;28;20177;-66
2023/12/24 00:05:05;;;;;;;1.17;1.17;;;;;;;7.17;nan;60483.91;4993367;28;20660;-66
2023/12/24 00:07:31;;;;;;;1.00;1.00;;;;;;;7.43;nan;60537.91;4992926;28;20177;-66
2023/12/24 00:09:56;;;;;;;0.97;0.97;;;;;;;7.41;nan;60536.22;4993549;28;20164;-66
2023/12/24 00:12:22;;;;;;;1.23;1.23;;;;;;;7.33;nan;60569.88;5008056;28;20578;-64
2023/12/24 00:14:47;;;;;;;2.00;1.73;;;;;;;7.68;nan;60565.97;4992993;28;20180;-63
2023/12/24 00:17:12;;;;;;;1.27;1.27;;;;;;;7.83;nan;60577.72;4993012;28;20172;-63
2023/12/24 00:19:38;;;;;;;1.50;1.40;;;;;;;7.89;nan;60757.34;4992964;28;20533;-66
2023/12/24 00:22:05;;;;;;;1.10;1.10;;;;;;;8.10;nan;60774.75;4992535;28;20196;-64
2023/12/24 00:24:31;;;;;;;1.33;1.27;;;;;;;8.06;nan;60608.06;4993086;28;20176;-63
2023/12/24 00:26:56;;;;;;;1.47;1.40;;;;;;;8.42;nan;60614.88;4993007;28;20181;-65
2023/12/24 00:29:22;;;;;;;1.23;1.13;;;;;;;8.47;nan;60648.47;4992760;28;20687;-67
2023/12/24 00:31:47;;;;;;;2.03;1.43;;;;;;;8.57;nan;60621.53;4991504;28;20311;-66
2023/12/24 00:34:12;;;;;;;1.40;1.30;;;;;;;8.65;nan;60683.41;4992739;28;20176;-65
2023/12/24 00:36:38;;;;;;;1.10;1.10;;;;;;;8.68;nan;60651.16;4992583;28;20180;-66
2023/12/24 00:39:04;;;;;;;2.50;1.83;;;;;;;8.93;nan;60851.84;4992697;28;20568;-66
2023/12/24 00:41:30;;;;;;;1.50;1.40;;;;;;;9.04;nan;60739.44;4992519;28;20272;-66
2023/12/24 00:43:56;;;;;;;1.10;1.10;;;;;;;9.09;nan;60673.72;4992194;28;20674;-63
2023/12/24 00:46:21;;;;;;;1.42;1.33;;;;;;;8.98;nan;60730.13;4992571;28;20173;-64
2023/12/24 00:48:47;;;;;;;1.05;1.05;;;;;;;8.97;nan;60716.81;4992247;28;20203;-64
2023/12/24 00:51:12;;;;;;;1.15;1.13;;;;;;;9.08;nan;60695.53;4992343;28;20176;-68
2023/12/24 00:53:37;;;;;;;1.35;1.25;;;;;;;9.10;nan;60707.97;4992232;28;20208;-65
2023/12/24 00:56:03;;;;;;;1.27;1.17;;;;;;;9.01;nan;60703.50;4992550;28;20173;-66
2023/12/24 00:58:28;;;;;;;1.40;1.30;;;;;;;9.16;nan;60831.91;4994055;28;20183;-64
2023/12/24 01:00:54;;;;;;;1.38;1.27;;;;;;;8.86;nan;60638.25;4993296;28;20177;-62
2023/12/24 01:03:20;;;;;;;1.33;1.27;;;;;;;8.99;nan;60665.03;4991982;28;20275;-65
2023/12/24 01:05:45;;;;;;;1.00;1.00;;;;;;;9.05;nan;60659.59;4991759;28;20633;-64
2023/12/24 01:08:11;;;;;;;1.10;1.10;;;;;;;8.95;nan;60663.66;4992197;28;20342;-65
2023/12/24 01:10:36;;;;;;;0.95;0.95;;;;;;;9.25;nan;60705.00;5007337;28;20242;-63
2023/12/24 01:13:02;;;;;;;1.42;1.33;;;;;;;9.15;nan;60739.06;4991909;28;20172;-65
2023/12/24 01:15:27;;;;;;;1.20;1.20;;;;;;;9.45;nan;60747.31;4991980;28;20180;-65
2023/12/24 01:17:53;;;;;;;1.55;1.45;;;;;;;9.51;nan;60906.47;4992043;28;20187;-65
2023/12/24 01:20:21;;;;;;;1.60;1.50;;;;;;;9.73;nan;60773.69;4990373;28;20173;-65
2023/12/24 01:22:46;;;;;;;1.85;1.75;;;;;;;9.95;nan;60761.59;4991711;28;20173;-63
2023/12/24 01:25:13;;;;;;;1.20;1.20;;;;;;;9.72;nan;60775.13;4990481;28;20569;-64
2023/12/24 01:27:38;;;;;;;1.00;1.00;;;;;;;9.96;nan;60760.19;4991637;28;20177;-62
2023/12/24 01:30:04;;;;;;;1.20;1.20;;;;;;;10.01;nan;60768.91;4991769;28;20177;-63
2023/12/24 01:32:30;;;;;;;1.15;1.15;;;;;;;9.70;nan;60755.03;4991744;28;20165;-65
2023/12/24 01:34:56;;;;;;;1.85;1.67;;;;;;;10.14;nan;60818.69;4991367;28;20219;-66
2023/12/24 01:37:21;;;;;;;3.42;2.05;;;;;;;10.01;nan;60880.63;4991672;28;20173;-65
2023/12/24 01:39:46;;;;;;;1.25;1.15;;;;;;;10.28;nan;60780.31;4991607;28;20173;-63
2023/12/24 01:42:13;;;;;;;1.10;1.10;;;;;;;10.29;nan;60774.34;4991582;28;20196;-64
2023/12/24 01:44:38;;;;;;;1.40;1.30;;;;;;;10.08;nan;60774.22;4991624;28;20195;-64
2023/12/24 01:47:05;;;;;;;1.13;1.10;;;;;;;10.23;nan;60772.13;4991574;28;20648;-68
2023/12/24 01:49:31;;;;;;;4.97;1.77;;;;;;;10.00;nan;60797.84;4991127;28;20196;-66
2023/12/24 01:51:56;;;;;;;1.00;1.00;;;;;;;10.19;nan;60867.72;4991374;28;20184;-66
2023/12/24 01:54:23;;;;;;;0.95;0.95;;;;;;;10.33;nan;60829.31;4995001;28;20603;-66
2023/12/24 01:56:49;;;;;;;0.98;0.98;;;;;;;9.98;nan;60826.78;4997948;28;20180;-64
2023/12/24 01:59:16;;;;;;;1.40;1.30;;;;;;;10.20;nan;60817.81;4998226;28;20548;-65
2023/12/24 02:01:42;;;;;;;1.35;1.20;;;;;;;10.26;nan;60824.56;5000409;28;20259;-66
2023/12/24 02:04:08;;;;;;;1.13;1.13;;;;;;;10.26;nan;60923.56;4997551;28;20259;-63
2023/12/24 02:06:34;;;;;;;1.60;1.30;;;;;;;10.08;nan;60868.09;4997822;28;20188;-64
2023/12/24 02:09:00;;;;;;;1.08;1.08;;;;;;;10.16;nan;60831.19;4997939;28;20231;-66
2023/12/24 02:11:26;;;;;;;1.38;1.27;;;;;;;10.17;nan;60789.47;4997854;28;20231;-66
2023/12/24 02:13:51;;;;;;;1.60;1.50;;;;;;;10.38;nan;60965.72;4998027;28;20231;-65
2023/12/24 02:16:19;;;;;;;1.20;1.20;;;;;;;10.25;nan;60848.41;4998178;28;20191;-64
2023/12/24 02:18:46;;;;;;;1.00;1.00;;;;;;;10.47;nan;60866.06;4997607;28;20188;-65
2023/12/24 02:21:11;;;;;;;1.20;1.20;;;;;;;10.35;nan;60862.22;4997851;28;20179;-63
2023/12/24 02:23:36;;;;;;;1.17;1.00;;;;;;;10.34;nan;60818.25;4997500;28;20172;-67
2023/12/24 02:26:24;;;;;;;1.20;1.10;;;;;;;9.96;nan;60831.59;4998032;28;20196;-64
2023/12/24 02:28:56;;;;;;;1.30;1.20;;;;;;;10.02;nan;60795.56;4997583;28;20218;-65
2023/12/24 02:31:26;;;;;;;1.48;1.35;;;;;;;10.41;nan;60825.56;4997525;28;20336;-64
2023/12/24 02:33:55;;;;;;;1.10;1.10;;;;;;;10.14;nan;60857.53;4997945;28;20688;-66
2023/12/24 02:36:20;;;;;;;1.33;1.23;;;;;;;10.45;nan;60843.38;4997585;28;20188;-66
2023/12/24 02:38:46;;;;;;;1.73;1.63;;;;;;;10.26;nan;60854.66;4997634;28;20165;-64
2023/12/24 02:41:11;;;;;;;1.00;1.00;;;;;;;10.32;nan;60849.19;4997585;28;20254;-63
2023/12/24 02:43:37;;;;;;;1.20;1.20;;;;;;;10.50;nan;60843.91;4997709;28;20229;-63
2023/12/24 02:46:02;;;;;;;1.23;1.23;;;;;;;10.47;nan;60868.06;4997236;28;20723;-63
2023/12/24 02:48:28;;;;;;;1.20;1.20;;;;;;;10.77;nan;60893.63;4997460;28;20202;-63
2023/12/24 02:50:53;;;;;;;1.10;1.10;;;;;;;10.41;nan;60815.91;4997503;28;20185;-65
2023/12/24 02:53:19;;;;;;;1.40;1.30;;;;;;;10.52;nan;60856.38;4990863;28;20186;-66
2023/12/24 02:55:44;;;;;;;1.67;1.42;;;;;;;10.59;nan;60843.25;4997412;28;20318;-65
2023/12/24 02:58:09;;;;;;;1.08;1.02;;;;;;;10.28;nan;60900.84;4997443;28;20664;-65
2023/12/24 03:00:35;;;;;;;1.20;1.20;;;;;;;10.54;nan;60878.50;4997059;28;20180;-64
2023/12/24 03:03:00;;;;;;;1.00;1.00;;;;;;;10.36;nan;60796.97;4997495;28;20636;-64
2023/12/24 03:05:25;;;;;;;1.15;1.15;;;;;;;10.46;nan;60808.22;4997816;28;20216;-64
2023/12/24 03:07:51;;;;;;;1.10;1.10;;;;;;;10.36;nan;60835.28;4994462;28;20672;-64
2023/12/24 03:10:16;;;;;;;0.90;0.90;;;;;;;10.33;nan;60817.13;4993963;28;20188;-66
2023/12/24 03:12:42;;;;;;;1.10;1.00;;;;;;;10.01;nan;60821.94;4994246;28;20672;-63
2023/12/24 03:15:08;;;;;;;1.10;1.10;;;;;;;10.11;nan;60823.56;4993748;28;20332;-63
2023/12/24 03:17:33;;;;;;;1.00;1.00;;;;;;;9.93;nan;60795.06;4994112;28;20173;-65
2023/12/24 03:19:58;;;;;;;2.47;1.30;;;;;;;9.96;nan;60936.78;4994075;28;20172;-64
2023/12/24 03:22:24;;;;;;;0.95;0.95;;;;;;;9.67;nan;60771.47;4994113;28;20296;-64
2023/12/24 03:24:50;;;;;;;1.02;1.02;;;;;;;9.58;nan;60766.47;4993857;28;20173;-65
2023/12/24 03:27:16;;;;;;;1.90;1.38;;;;;;;9.63;nan;60807.78;4993982;28;20644;-65
2023/12/24 03:29:42;;;;;;;1.10;1.10;;;;;;;9.74;nan;60805.44;4994101;28;20540;-64
2023/12/24 03:32:09;;;;;;;1.00;1.00;;;;;;;9.61;nan;60788.25;4993830;28;20228;-66
2023/12/24 03:34:34;;;;;;;1.00;1.00;;;;;;;9.67;nan;60771.47;4994106;28;20177;-63
2023/12/24 03:37:00;;;;;;;1.60;1.50;;;;;;;9.71;nan;60811.69;4993940;28;20199;-66
2023/12/24 03:39:25;;;;;;;1.00;1.00;;;;;;;9.73;nan;60817.06;4993745;28;20625;-66
2023/12/24 03:41:51;;;;;;;1.50;1.38;;;;;;;9.54;nan;60767.63;4993706;28;20254;-66
2023/12/24 03:44:16;;;;;;;1.20;1.10;;;;;;;9.69;nan;60766.09;4993298;28;20664;-65
2023/12/24 03:46:41;;;;;;;1.73;1.60;;;;;;;9.70;nan;60823.88;4993969;28;20318;-66
2023/12/24 03:49:09;;;;;;;1.30;1.20;;;;;;;9.75;nan;60839.16;4993687;28;20212;-65
2023/12/24 03:51:34;;;;;;;1.10;1.10;;;;;;;9.76;nan;60751.56;4993498;28;20230;-64
2023/12/24 03:54:00;;;;;;;1.30;1.20;;;;;;;9.76;nan;60773.94;4993346;28;20181;-67
2023/12/24 03:56:25;;;;;;;1.10;1.10;;;;;;;9.85;nan;60868.25;4993420;28;20180;-65
2023/12/24 03:58:50;;;;;;;1.42;1.10;;;;;;;9.96;nan;60813.75;4993304;28;20188;-63
2023/12/24 04:01:16;;;;;;;0.95;0.95;;;;;;;9.98;nan;60785.41;4993417;28;20231;-65
2023/12/24 04:03:41;;;;;;;1.10;1.10;;;;;;;10.00;nan;60823.34;4993419;28;20169;-65
2023/12/24 04:06:13;;;;;;;1.00;1.00;;;;;;;10.03;nan;60827.31;4993816;28;20180;-63
2023/12/24 04:08:39;;;;;;;1.00;1.00;;;;;;;9.93;nan;60922.63;4995861;28;20247;-64
2023/12/24 04:11:11;;;;;;;1.10;1.10;;;;;;;10.03;nan;60785.91;4993187;28;20664;-65
2023/12/24 04:13:37;;;;;;;0.90;0.90;;;;;;;9.65;nan;60813.16;4993998;28;20528;-65
2023/12/24 04:16:02;;;;;;;1.00;1.00;;;;;;;9.66;nan;60788.75;4993442;28;20235;-66
2023/12/24 04:18:27;;;;;;;1.10;1.10;;;;;;;9.80;nan;60959.00;4992725;28;20181;-63
2023/12/24 04:20:53;;;;;;;1.33;1.20;;;;;;;10.01;nan;60804.06;4992968;28;20624;-64
2023/12/24 04:23:18;;;;;;;1.00;1.00;;;;;;;9.76;nan;60799.47;4992669;28;20235;-62
2023/12/24 04:25:44;;;;;;;1.00;1.00;;;;;;;9.79;nan;60797.75;4992563;28;20259;-64
2023/12/24 04:28:09;;;;;;;1.10;1.10;;;;;;;9.86;nan;60772.44;4992667;28;20515;-63
2023/12/24 04:30:35;;;;;;;1.27;1.17;;;;;;;9.90;nan;60970.25;4992845;28;20680;-66
2023/12/24 04:33:00;;;;;;;1.25;1.10;;;;;;;10.09;nan;60821.28;4992883;28;20230;-65
2023/12/24 04:35:25;;;;;;;1.00;1.00;;;;;;;9.73;nan;60789.00;4992705;28;20172;-65
2023/12/24 04:37:51;;;;;;;1.13;1.13;;;;;;;9.94;nan;60865.63;4992409;28;20165;-63
2023/12/24 04:40:16;;;;;;;1.20;1.20;;;;;;;10.19;nan;60832.00;4992629;28;20703;-66
2023/12/24 04:42:42;;;;;;;1.02;1.02;;;;;;;9.73;nan;60819.59;4992447;28;20173;-63
2023/12/24 04:45:07;;;;;;;1.00;1.00;;;;;;;10.27;nan;60843.00;4992757;28;20249;-62
2023/12/24 04:47:33;;;;;;;1.30;1.20;;;;;;;10.07;nan;60813.94;4992471;28;20558;-66
2023/12/24 04:49:58;;;;;;;1.10;1.10;;;;;;;10.01;nan;60819.94;5007637;28;20608;-63
2023/12/24 04:52:23;;;;;;;1.00;1.00;;;;;;;10.06;nan;60832.66;4992490;28;20184;-66
2023/12/24 04:54:49;;;;;;;1.05;1.05;;;;;;;10.31;nan;60868.47;4992101;28;20169;-67
2023/12/24 04:57:14;;;;;;;0.95;0.95;;;;;;;10.35;nan;60837.25;4991905;28;20757;-62
2023/12/24 04:59:40;;;;;;;1.52;1.42;;;;;;;10.59;nan;60900.00;4992320;28;20176;-66
2023/12/24 05:02:05;;;;;;;1.00;1.00;;;;;;;10.66;nan;60878.69;4992373;28;20704;-62
2023/12/24 05:04:32;;;;;;;1.08;1.08;;;;;;;10.63;nan;60884.09;4992297;28;20168;-64
2023/12/24 05:06:58;;;;;;;1.10;1.10;;;;;;;10.72;nan;60880.91;4992188;28;20181;-64
2023/12/24 05:09:24;;;;;;;1.05;1.05;;;;;;;10.57;nan;60862.03;4993340;28;20204;-61
2023/12/24 05:11:49;;;;;;;1.00;1.00;;;;;;;10.83;nan;60898.38;4993004;28;20611;-65
2023/12/24 05:14:14;;;;;;;1.67;1.33;;;;;;;10.60;nan;60862.28;4992013;28;20644;-62
2023/12/24 05:16:42;;;;;;;1.42;1.33;;;;;;;11.03;nan;61089.03;4992264;28;20242;-65
2023/12/24 05:19:09;;;;;;;0.95;0.95;;;;;;;10.80;nan;61065.63;4991957;28;20584;-65
2023/12/24 05:21:34;;;;;;;1.00;1.00;;;;;;;11.01;nan;60910.44;4992123;28;20243;-65
2023/12/24 05:24:03;;;;;;;0.95;0.95;;;;;;;10.86;nan;60906.88;4992157;28;20169;-66
2023/12/24 05:26:28;;;;;;;0.90;0.90;;;;;;;10.93;nan;60896.88;4991801;28;20271;-65
2023/12/24 05:28:54;;;;;;;0.77;0.77;;;;;;;10.83;nan;60890.16;4991207;28;20335;-63
2023/12/24 05:31:19;;;;;;;1.00;1.00;;;;;;;10.13;nan;60843.09;4991911;28;20689;-65
2023/12/24 05:33:44;;;;;;;0.88;0.88;;;;;;;10.46;nan;60866.94;4991740;28;20183;-65
2023/12/24 05:36:14;;;;;;;1.00;1.00;;;;;;;9.79;nan;60925.28;4991895;28;20173;-67
2023/12/24 05:38:40;;;;;;;1.23;1.10;;;;;;;10.58;nan;60847.25;4991406;28;20644;-66
2023/12/24 05:41:10;;;;;;;0.93;0.93;;;;;;;10.36;nan;60853.69;4991686;28;20291;-66
2023/12/24 05:43:36;;;;;;;1.00;1.00;;;;;;;10.19;nan;60903.47;4991738;28;20177;-67
2023/12/24 05:46:02;;;;;;;1.00;1.00;;;;;;;10.39;nan;60872.41;4991801;28;20659;-68
2023/12/24 05:48:27;;;;;;;1.02;1.02;;;;;;;10.13;nan;60830.31;4991522;28;20246;-65
2023/12/24 05:50:52;;;;;;;1.10;1.10;;;;;;;10.07;nan;60902.69;4991474;28;20663;-65
2023/12/24 05:53:18;;;;;;;1.00;1.00;;;;;;;10.04;nan;60825.31;4991409;28;20293;-63
2023/12/24 05:55:43;;;;;;;0.95;0.95;;;;;;;10.21;nan;60846.47;4991794;28;20177;-64
2023/12/24 05:58:08;;;;;;;0.90;0.90;;;;;;;10.09;nan;60810.50;4991249;28;20666;-63
2023/12/24 06:00:35;;;;;;;1.00;1.00;;;;;;;10.18;nan;60894.69;4991262;28;20181;-65
2023/12/24 06:03:02;;;;;;;1.00;1.00;;;;;;;10.21;nan;60798.53;4991448;28;20172;-66
2023/12/24 06:05:27;;;;;;;0.90;0.90;;;;;;;9.94;nan;60806.94;5006618;28;20267;-63
2023/12/24 06:07:53;;;;;;;1.98;1.80;;;;;;;10.19;nan;60824.34;4984893;28;20805;-64
2023/12/24 06:10:18;;;;;;;1.30;1.20;;;;;;;10.10;nan;60978.09;4991666;28;20493;-63
2023/12/24 06:12:48;;;;;;;1.10;1.10;;;;;;;10.05;nan;60839.19;4993027;28;20274;-63
2023/12/24 06:15:14;;;;;;;1.10;1.10;;;;;;;10.03;nan;60829.28;4990038;28;20656;-64
2023/12/24 06:17:39;;;;;;;1.02;1.02;;;;;;;10.14;nan;60837.13;4986812;28;20307;-65
2023/12/24 06:20:05;;;;;;;1.13;1.13;;;;;;;10.02;nan;60820.50;4991244;28;20656;-64
2023/12/24 06:22:31;;;;;;;1.42;1.33;;;;;;;10.25;nan;60841.31;4990853;28;20173;-66
2023/12/24 06:24:56;;;;;;;0.88;0.88;;;;;;;10.32;nan;60828.75;4991651;28;20187;-62
2023/12/24 06:27:23;;;;;;;1.00;1.00;;;;;;;10.47;nan;60842.53;4991304;28;20494;-65
2023/12/24 06:29:48;;;;;;;1.17;1.10;;;;;;;10.33;nan;60919.25;5006419;28;20728;-66
2023/12/24 06:32:13;;;;;;;1.10;1.10;;;;;;;10.32;nan;60844.09;4991477;28;20231;-66
2023/12/24 06:34:40;;;;;;;1.00;1.00;;;;;;;10.39;nan;60834.09;4991344;28;20176;-64
2023/12/24 06:37:05;;;;;;;1.58;1.23;;;;;;;10.31;nan;60924.63;4989433;28;20552;-65
2023/12/24 06:39:31;;;;;;;1.05;1.02;;;;;;;10.41;nan;60889.38;4991394;28;20234;-65
2023/12/24 06:41:56;;;;;;;1.13;1.10;;;;;;;10.54;nan;60853.53;4995226;28;20181;-64
2023/12/24 06:44:23;;;;;;;1.20;1.10;;;;;;;10.40;nan;60919.47;4994932;28;20632;-66
2023/12/24 06:46:48;;;;;;;1.10;1.10;;;;;;;10.56;nan;60865.44;4994796;28;20202;-65
2023/12/24 06:49:13;;;;;;;2.05;1.70;;;;;;;10.89;nan;60912.81;4994702;28;20200;-66
2023/12/24 06:51:39;;;;;;;1.15;1.08;;;;;;;10.97;nan;60893.16;4994531;28;20255;-65
2023/12/24 06:54:04;;;;;;;1.08;1.08;;;;;;;10.79;nan;60886.22;4994888;28;20271;-65
2023/12/24 06:56:30;;;;;;;0.90;0.90;;;;;;;11.20;nan;60913.38;4994548;28;20188;-63
2023/12/24 06:58:55;;;;;;;1.38;1.27;;;;;;;11.06;nan;60919.19;4994318;28;20173;-64
2023/12/24 07:01:20;;;;;;;1.23;1.17;;;;;;;11.39;nan;60968.59;4994468;28;20173;-63
2023/12/24 07:03:46;;;;;;;1.17;1.17;;;;;;;11.48;nan;60935.25;4955882;28;20554;-65
2023/12/24 07:06:11;;;;;;;1.08;1.08;;;;;;;11.63;nan;60966.38;4978960;28;20193;-64
2023/12/24 07:08:38;;;;;;;1.08;1.08;;;;;;;11.86;nan;61020.47;4993428;28;20247;-66
2023/12/24 07:11:04;;;;;;;0.90;0.90;;;;;;;11.87;nan;60985.78;4994801;28;20177;-64
2023/12/24 07:13:30;;;;;;;0.98;0.98;;;;;;;11.99;nan;61016.66;4994159;28;20256;-63
2023/12/24 07:15:55;;;;;;;1.30;1.20;;;;;;;11.93;nan;60992.53;4997022;28;20220;-63
2023/12/24 07:18:21;;;;;;;1.20;1.20;;;;;;;12.04;nan;61014.63;4993772;28;20268;-65
2023/12/24 07:20:46;;;;;;;1.40;1.30;;;;;;;11.94;nan;60996.22;4993790;28;20227;-65
2023/12/24 07:23:11;;;;;;;0.85;0.85;;;;;;;11.90;nan;61007.06;4993068;28;20235;-67
2023/12/24 07:25:37;;;;;;;1.40;1.10;;;;;;;12.02;nan;61012.94;4994367;28;20173;-65
2023/12/24 07:28:02;;;;;;;11.15;1.90;;;;;;;12.27;nan;61036.00;4993773;28;20348;-64
2023/12/24 07:30:28;;;;;;;1.00;1.00;;;;;;;12.32;nan;61082.06;4990564;28;20224;-66
2023/12/24 07:32:53;;;;;;;1.00;1.00;;;;;;;12.35;nan;61039.88;4990869;28;20545;-65
2023/12/24 07:35:19;;;;;;;1.08;1.08;;;;;;;12.35;nan;61016.84;4993687;28;20231;-64
2023/12/24 07:37:46;;;;;;;1.05;1.02;;;;;;;12.19;nan;61032.09;4993740;28;20644;-62
2023/12/24 07:40:12;;;;;;;0.98;0.98;;;;;;;12.37;nan;61047.28;4993730;28;20196;-64
2023/12/24 07:42:38;;;;;;;0.85;0.85;;;;;;;12.21;nan;61013.84;4993825;28;20279;-64
2023/12/24 07:45:04;;;;;;;1.00;1.00;;;;;;;12.42;nan;61024.19;4993445;28;20188;-63
2023/12/24 07:47:32;;;;;;;1.42;1.33;;;;;;;12.33;nan;60953.13;4993630;28;20216;-64
2023/12/24 07:49:57;;;;;;;2.35;1.27;;;;;;;12.17;nan;61019.59;4993112;28;20208;-63
2023/12/24 07:52:23;;;;;;;1.05;1.05;;;;;;;12.26;nan;61009.25;4993218;28;20547;-65
2023/12/24 07:54:49;;;;;;;4.53;1.17;;;;;;;12.18;nan;61030.97;4993473;28;20223;-64
2023/12/24 07:57:14;;;;;;;0.90;0.90;;;;;;;12.42;nan;61049.22;4993359;28;20181;-64
2023/12/24 07:59:40;;;;;;;1.42;1.33;;;;;;;12.46;nan;61033.25;4993382;28;20173;-65
2023/12/24 08:02:06;;;;;;;1.98;1.08;;;;;;;12.67;nan;61097.94;4993435;28;20169;-62
2023/12/24 08:04:32;;;;;;;1.00;0.98;;;;;;;12.72;nan;61095.88;4993118;28;20628;-64
2023/12/24 08:06:57;;;;;;;1.10;1.10;;;;;;;12.91;nan;61137.84;4993861;28;20175;-67
2023/12/24 08:09:23;;;;;;;0.60;0.60;;;;;;;13.00;nan;61103.84;4993348;28;20208;-66
2023/12/24 08:11:48;;;;;;;0.88;0.88;;;;;;;12.98;nan;61135.50;4993428;28;20663;-65
2023/12/24 08:14:13;;;;;;;1.65;1.55;;;;;;;13.04;nan;61108.91;4993571;28;20180;-66
2023/12/24 08:16:39;;;;;;;1.25;1.17;;;;;;;13.25;nan;61107.00;4993880;28;20590;-63
2023/12/24 08:19:05;;;;;;;2.33;1.48;;;;;;;13.06;nan;61134.25;4994913;28;20268;-66
2023/12/24 08:21:31;;;;;;;0.88;0.88;;;;;;;13.57;nan;61154.81;4992969;28;20276;-64
2023/12/24 08:23:56;;;;;;;2.05;1.10;;;;;;;13.61;nan;61147.06;4993269;28;20251;-66
2023/12/24 08:26:21;;;;;;;1.25;0.90;;;;;;;13.62;nan;61147.63;4992956;28;20215;-64
2023/12/24 08:28:47;;;;;;;1.05;1.05;;;;;;;13.89;nan;61082.53;4992484;28;20193;-69
2023/12/24 08:31:13;;;;;;;0.90;0.90;;;;;;;13.96;nan;61070.47;4992475;28;20247;-67
2023/12/24 08:33:38;;;;;;;1.08;1.05;;;;;;;14.08;nan;61212.44;4992319;28;20180;-66
2023/12/24 08:36:04;;;;;;;0.98;0.98;;;;;;;14.18;nan;61174.34;4992671;28;20250;-63
2023/12/24 08:38:30;;;;;;;0.90;0.90;;;;;;;14.20;nan;61070.69;4992789;28;20173;-65
2023/12/24 08:40:55;;;;;;;1.00;1.00;;;;;;;14.33;nan;61170.72;4992762;28;20176;-65
2023/12/24 08:43:21;;;;;;;0.80;0.80;;;;;;;14.40;nan;61078.41;4992465;28;20172;-65
2023/12/24 08:45:46;;;;;;;1.33;1.23;;;;;;;14.38;nan;61250.91;4992375;28;20173;-65
2023/12/24 08:48:12;;;;;;;0.90;0.90;;;;;;;14.34;nan;61060.78;4992131;28;20211;-65
2023/12/24 08:50:37;;;;;;;0.95;0.95;;;;;;;14.68;nan;61158.28;4992080;28;20259;-64
2023/12/24 08:53:03;;;;;;;0.90;0.90;;;;;;;14.55;nan;61126.19;4992544;28;20176;-63
2023/12/24 08:55:29;;;;;;;0.93;0.93;;;;;;;14.75;nan;61168.19;4992361;28;20216;-65
2023/12/24 08:57:54;;;;;;;2.25;2.00;;;;;;;14.65;nan;61156.91;4992306;28;20570;-63
2023/12/24 09:00:20;;;;;;;0.90;0.90;;;;;;;14.70;nan;61172.84;4992142;28;20207;-63
2023/12/24 09:02:45;;;;;;;0.85;0.85;;;;;;;14.81;nan;61342.13;4990390;28;20173;-64
2023/12/24 09:05:11;;;;;;;0.90;0.90;;;;;;;14.51;nan;61023.44;4991298;28;20184;-68
2023/12/24 09:07:36;;;;;;;0.80;0.80;;;;;;;14.46;nan;61130.88;4991838;28;20544;-64
2023/12/24 09:10:03;;;;;;;1.00;1.00;;;;;;;14.65;nan;61358.00;4992015;28;20248;-64
2023/12/24 09:12:28;;;;;;;0.90;0.90;;;;;;;14.55;nan;61272.72;4991802;28;20180;-63
2023/12/24 09:14:54;;;;;;;1.00;1.00;;;;;;;14.49;nan;61062.31;4991551;28;20263;-64
2023/12/24 09:17:19;;;;;;;1.02;0.93;;;;;;;14.63;nan;61275.47;4991729;28;20325;-66
2023/12/24 09:19:45;;;;;;;0.90;0.90;;;;;;;14.68;nan;61340.84;4994052;28;20243;-64
2023/12/24 09:22:10;;;;;;;0.88;0.88;;;;;;;14.73;nan;61273.94;4992157;28;20597;-67
2023/12/24 09:24:36;;;;;;;0.85;0.85;;;;;;;14.87;nan;61115.44;4991855;28;20177;-62
2023/12/24 09:27:01;;;;;;;1.15;1.15;;;;;;;14.88;nan;61211.16;4991872;28;20701;-67
2023/12/24 09:29:27;;;;;;;0.80;0.80;;;;;;;14.61;nan;61062.41;4991604;28;20242;-64
2023/12/24 09:31:52;;;;;;;1.08;1.08;;;;;;;14.59;nan;61048.44;4922710;28;20733;-65
2023/12/24 09:34:18;;;;;;;1.10;1.10;;;;;;;14.65;nan;61100.34;4230938;28;21435;-66
2023/12/24 09:36:43;;;;;;;1.30;1.20;;;;;;;14.91;nan;61114.78;4227663;28;21361;-65
2023/12/24 09:39:09;;;;;;;1.20;1.20;;;;;;;14.88;nan;61276.03;4229863;28;21410;-65
2023/12/24 09:41:37;;;;;;;0.80;0.80;;;;;;;15.03;nan;61192.06;4337427;28;21062;-62
2023/12/24 09:44:03;;;;;;;0.90;0.90;;;;;;;14.90;nan;61131.09;4991746;28;20657;-63
2023/12/24 09:46:28;;;;;;;1.05;1.05;;;;;;;15.02;nan;61306.72;4991570;28;20181;-63
2023/12/24 09:48:54;;;;;;;0.80;0.80;;;;;;;14.88;nan;61270.88;4991283;28;20242;-63
2023/12/24 09:51:23;;;;;;;0.85;0.85;;;;;;;14.98;nan;61124.72;4991323;28;20239;-65
2023/12/24 09:53:49;;;;;;;0.98;0.93;;;;;;;15.22;nan;61189.78;4991445;28;20173;-66
2023/12/24 09:56:15;;;;;;;0.80;0.80;;;;;;;15.13;nan;61259.41;4991478;28;20173;-66
2023/12/24 09:58:41;;;;;;;0.95;0.90;;;;;;;15.27;nan;61185.16;4991501;28;20185;-65
2023/12/24 10:01:07;;;;;;;5.05;1.67;;;;;;;15.15;nan;61127.88;5022897;28;20215;-63
2023/12/24 10:03:32;;;;;;;0.82;0.82;;;;;;;15.03;nan;61302.69;4991398;28;20526;-64
2023/12/24 10:06:08;;;;;;;1.13;0.70;;;;;;;14.53;nan;61100.78;4991701;28;20177;-63
2023/12/24 10:08:35;;;;;;;0.90;0.90;;;;;;;14.68;nan;61132.00;4991381;28;20679;-63
2023/12/24 10:11:13;;;;;;;0.85;0.82;;;;;;;14.68;nan;61124.84;4991282;28;20188;-65
2023/12/24 10:13:39;;;;;;;0.90;0.90;;;;;;;14.53;nan;61251.88;4991212;28;20176;-64
2023/12/24 10:16:05;;;;;;;0.90;0.90;;;;;;;14.84;nan;61148.03;4994237;28;20607;-61
2023/12/24 10:18:31;;;;;;;3.80;1.35;;;;;;;14.69;nan;61248.84;4995967;28;20219;-63
2023/12/24 10:21:03;;;;;;;0.80;0.80;;;;;;;14.88;nan;61162.28;4995655;28;20620;-64
2023/12/24 10:23:28;;;;;;;0.80;0.80;;;;;;;14.81;nan;61180.09;4986030;28;20184;-65
2023/12/24 10:26:05;;;;;;;1.02;1.02;;;;;;;14.84;nan;61070.88;4989195;28;20215;-64
2023/12/24 10:28:32;;;;;;;0.80;0.80;;;;;;;14.87;nan;61274.31;4988398;28;20299;-65
2023/12/24 10:31:09;;;;;;;0.82;0.82;;;;;;;15.07;nan;61286.66;4988325;28;20255;-62
2023/12/24 10:33:37;;;;;;;0.90;0.90;;;;;;;15.39;nan;61142.06;4988525;28;20188;-66
2023/12/24 10:36:04;;;;;;;0.80;0.80;;;;;;;15.67;nan;61217.47;4992756;28;20188;-66
2023/12/24 10:38:30;;;;;;;0.80;0.80;;;;;;;15.65;nan;61245.53;4988357;28;20189;-64
2023/12/24 10:40:56;;;;;;;0.90;0.90;;;;;;;15.81;nan;61371.81;4988393;28;20597;-64
2023/12/24 10:43:21;;;;;;;0.90;0.90;;;;;;;15.82;nan;61381.22;4988555;28;20185;-64
2023/12/24 10:45:47;;;;;;;0.90;0.90;;;;;;;15.92;nan;61268.31;4984583;28;20201;-64
2023/12/24 10:48:12;;;;;;;0.80;0.80;;;;;;;13.67;nan;61094.81;4990266;28;20283;-65
2023/12/24 10:50:38;;;;;;;1.00;1.00;;;;;;;16.08;nan;61240.00;4990152;28;20181;-66
2023/12/24 10:53:04;;;;;;;0.90;0.90;;;;;;;16.23;nan;61298.16;4988361;28;20180;-63
2023/12/24 10:55:34;;;;;;;0.80;0.80;;;;;;;16.03;nan;61404.44;4989204;28;20180;-65
2023/12/24 10:58:21;;;;;;;1.10;1.00;;;;;;;16.25;nan;61366.88;4993299;28;20185;-64
2023/12/24 11:00:46;;;;;;;0.90;0.90;;;;;;;16.22;nan;61335.72;4991847;28;20184;-64
2023/12/24 11:03:47;;;;;;;0.75;0.75;;;;;;;16.26;nan;61319.63;4988472;28;20177;-63
2023/12/24 11:06:38;;;;;;;0.70;0.70;;;;;;;16.53;nan;61303.16;4991739;28;20636;-63
2023/12/24 11:09:05;;;;;;;0.80;0.80;;;;;;;16.43;nan;61309.31;4987845;28;20728;-65
2023/12/24 11:11:53;;;;;;;0.90;0.90;;;;;;;16.49;nan;61401.22;4989068;28;20188;-63
2023/12/24 11:14:48;;;;;;;0.80;0.80;;;;;;;16.53;nan;61382.53;4988155;28;20184;-62
2023/12/24 11:17:33;;;;;;;1.00;1.00;;;;;;;16.45;nan;61343.09;4989082;28;20188;-64
2023/12/24 11:20:25;;;;;;;0.88;0.88;;;;;;;16.44;nan;61311.03;4986477;28;20271;-63
2023/12/24 11:23:02;;;;;;;0.80;0.80;;;;;;;16.44;nan;61378.06;5004200;28;20200;-63
2023/12/24 11:25:48;;;;;;;0.77;0.77;;;;;;;16.27;nan;61559.94;4994048;28;20591;-64
2023/12/24 11:28:36;;;;;;;0.88;0.88;;;;;;;16.36;nan;61353.56;4993064;28;20281;-64
2023/12/24 11:31:04;;;;;;;0.80;0.80;;;;;;;16.30;nan;61369.97;4974231;28;20348;-65
2023/12/24 11:33:29;;;;;;;0.93;0.93;;;;;;;16.33;nan;61393.97;4974516;28;20177;-65
2023/12/24 11:35:56;;;;;;;0.60;0.60;;;;;;;16.08;nan;61402.34;4974461;28;20235;-66
2023/12/24 11:38:33;;;;;;;1.15;1.05;;;;;;;16.10;nan;61322.13;4974274;28;20183;-64
2023/12/24 11:41:19;;;;;;;0.80;0.80;;;;;;;16.09;nan;61402.91;4974278;28;20676;-63
2023/12/24 11:43:58;;;;;;;0.82;0.82;;;;;;;16.26;nan;61254.59;4974124;28;20173;-64
2023/12/24 11:46:29;;;;;;;0.80;0.80;;;;;;;16.31;nan;61296.91;4974427;28;20220;-65
2023/12/24 11:48:56;;;;;;;0.80;0.80;;;;;;;16.12;nan;61499.66;4974231;28;20193;-64